sensor_id;sensor_type;location;lat;lon;timestamp;P1;durP1;ratioP1;P2;durP2;ratioP2
14272;SDS011;7220;49.450;11.052;2022-12-11T00:01:53;21.97;;;14.40;;
14272;SDS011;7220;49.450;11.052;2022-12-11T00:05:54;23.30;;;14.17;;
14272;SDS011;7220;49.450;11.052;2022-12-11T00:09:54;19.47;;;13.60;;
14272;SDS011;7220;49.450;11.052;2022-12-11T00:13:54;20.27;;;12.43;;
14272;SDS011;7220;49.450;11.052;2022-12-11T00:17:54;20.17;;;13.33;;
14272;SDS011;7220;49.450;11.052;2022-12-11T00:21:55;22.37;;;14.20;;
14272;SDS011;7220;49.450;11.052;2022-12-11T00:25:55;21.00;;;13.83;;
14272;SDS011;7220;49.450;11.052;2022-12-11T00:29:55;22.93;;;14.40;;
14272;SDS011;7220;49.450;11.052;2022-12-11T00:33:56;24.67;;;15.40;;
14272;SDS011;7220;49.450;11.052;2022-12-11T00:37:56;22.23;;;14.93;;
14272;SDS011;7220;49.450;11.052;2022-12-11T00:41:57;20.30;;;14.20;;
14272;SDS011;7220;49.450;11.052;2022-12-11T00:45:57;20.50;;;14.57;;
14272;SDS011;7220;49.450;11.052;2022-12-11T00:49:57;21.63;;;14.53;;
14272;SDS011;7220;49.450;11.052;2022-12-11T00:53:57;22.37;;;15.23;;
14272;SDS011;7220;49.450;11.052;2022-12-11T00:57:58;22.03;;;15.07;;
14272;SDS011;7220;49.450;11.052;2022-12-11T01:01:58;24.03;;;15.97;;
14272;SDS011;7220;49.450;11.052;2022-12-11T01:05:58;18.97;;;13.40;;
14272;SDS011;7220;49.450;11.052;2022-12-11T01:09:59;23.63;;;14.60;;
14272;SDS011;7220;49.450;11.052;2022-12-11T01:14:18;21.47;;;14.87;;
14272;SDS011;7220;49.450;11.052;2022-12-11T01:18:18;21.87;;;14.97;;
14272;SDS011;7220;49.450;11.052;2022-12-11T01:22:18;22.80;;;15.03;;
14272;SDS011;7220;49.450;11.052;2022-12-11T01:26:19;23.43;;;15.33;;
14272;SDS011;7220;49.450;11.052;2022-12-11T01:30:21;25.27;;;16.43;;
14272;SDS011;7220;49.450;11.052;2022-12-11T01:34:23;24.33;;;15.93;;
14272;SDS011;7220;49.450;11.052;2022-12-11T01:38:23;24.70;;;15.23;;
14272;SDS011;7220;49.450;11.052;2022-12-11T01:42:23;24.43;;;16.53;;
14272;SDS011;7220;49.450;11.052;2022-12-11T01:46:24;24.73;;;16.13;;
14272;SDS011;7220;49.450;11.052;2022-12-11T01:50:25;25.67;;;16.50;;
14272;SDS011;7220;49.450;11.052;2022-12-11T01:54:26;24.10;;;16.43;;
14272;SDS011;7220;49.450;11.052;2022-12-11T01:58:30;25.57;;;16.40;;
14272;SDS011;7220;49.450;11.052;2022-12-11T02:02:32;25.63;;;16.17;;
14272;SDS011;7220;49.450;11.052;2022-12-11T02:15:30;28.93;;;16.57;;
14272;SDS011;7220;49.450;11.052;2022-12-11T02:19:43;28.30;;;16.63;;
14272;SDS011;7220;49.450;11.052;2022-12-11T02:23:59;26.40;;;16.70;;
14272;SDS011;7220;49.450;11.052;2022-12-11T02:36:50;28.43;;;17.50;;
14272;SDS011;7220;49.450;11.052;2022-12-11T02:40:53;29.13;;;19.30;;
14272;SDS011;7220;49.450;11.052;2022-12-11T02:44:57;28.77;;;18.80;;
14272;SDS011;7220;49.450;11.052;2022-12-11T02:48:59;27.13;;;17.37;;
14272;SDS011;7220;49.450;11.052;2022-12-11T02:53:03;27.77;;;17.60;;
14272;SDS011;7220;49.450;11.052;2022-12-11T02:57:08;32.87;;;19.53;;
14272;SDS011;7220;49.450;11.052;2022-12-11T03:01:15;26.50;;;18.70;;
14272;SDS011;7220;49.450;11.052;2022-12-11T03:05:16;28.07;;;18.17;;
14272;SDS011;7220;49.450;11.052;2022-12-11T03:09:16;28.10;;;17.97;;
14272;SDS011;7220;49.450;11.052;2022-12-11T03:13:17;28.00;;;17.37;;
14272;SDS011;7220;49.450;11.052;2022-12-11T03:17:21;26.70;;;17.67;;
14272;SDS011;7220;49.450;11.052;2022-12-11T03:30:07;22.37;;;14.87;;
14272;SDS011;7220;49.450;11.052;2022-12-11T03:34:15;22.47;;;16.57;;
14272;SDS011;7220;49.450;11.052;2022-12-11T03:38:23;24.10;;;15.90;;
14272;SDS011;7220;49.450;11.052;2022-12-11T03:42:35;22.83;;;15.90;;
14272;SDS011;7220;49.450;11.052;2022-12-11T03:46:37;28.70;;;18.23;;
14272;SDS011;7220;49.450;11.052;2022-12-11T03:50:39;26.07;;;17.63;;
14272;SDS011;7220;49.450;11.052;2022-12-11T03:54:41;25.07;;;15.83;;
14272;SDS011;7220;49.450;11.052;2022-12-11T03:58:44;25.17;;;16.60;;
14272;SDS011;7220;49.450;11.052;2022-12-11T04:02:45;25.13;;;17.43;;
14272;SDS011;7220;49.450;11.052;2022-12-11T04:07:06;29.97;;;17.90;;
14272;SDS011;7220;49.450;11.052;2022-12-11T04:11:08;27.27;;;17.80;;
14272;SDS011;7220;49.450;11.052;2022-12-11T04:15:28;25.43;;;17.20;;
14272;SDS011;7220;49.450;11.052;2022-12-11T04:19:28;29.10;;;17.73;;
14272;SDS011;7220;49.450;11.052;2022-12-11T04:23:47;28.80;;;18.17;;
14272;SDS011;7220;49.450;11.052;2022-12-11T04:28:06;28.53;;;17.43;;
14272;SDS011;7220;49.450;11.052;2022-12-11T04:32:06;27.40;;;17.10;;
14272;SDS011;7220;49.450;11.052;2022-12-11T04:36:07;26.23;;;16.80;;
14272;SDS011;7220;49.450;11.052;2022-12-11T04:40:09;26.50;;;17.97;;
14272;SDS011;7220;49.450;11.052;2022-12-11T04:44:12;26.67;;;16.90;;
14272;SDS011;7220;49.450;11.052;2022-12-11T04:48:12;26.57;;;16.57;;
14272;SDS011;7220;49.450;11.052;2022-12-11T04:52:12;25.00;;;17.13;;
14272;SDS011;7220;49.450;11.052;2022-12-11T04:56:13;26.20;;;16.87;;
14272;SDS011;7220;49.450;11.052;2022-12-11T05:00:15;26.60;;;17.03;;
14272;SDS011;7220;49.450;11.052;2022-12-11T05:04:16;29.63;;;18.03;;
14272;SDS011;7220;49.450;11.052;2022-12-11T05:08:19;26.17;;;17.03;;
14272;SDS011;7220;49.450;11.052;2022-12-11T05:12:20;28.77;;;16.83;;
14272;SDS011;7220;49.450;11.052;2022-12-11T05:16:20;23.93;;;16.63;;
14272;SDS011;7220;49.450;11.052;2022-12-11T05:20:20;29.17;;;18.30;;
14272;SDS011;7220;49.450;11.052;2022-12-11T05:24:21;25.93;;;16.20;;
14272;SDS011;7220;49.450;11.052;2022-12-11T05:28:22;26.20;;;17.23;;
14272;SDS011;7220;49.450;11.052;2022-12-11T05:32:24;27.37;;;16.70;;
14272;SDS011;7220;49.450;11.052;2022-12-11T05:36:25;26.07;;;16.60;;
14272;SDS011;7220;49.450;11.052;2022-12-11T05:40:27;25.13;;;16.03;;
14272;SDS011;7220;49.450;11.052;2022-12-11T05:44:27;25.93;;;17.07;;
14272;SDS011;7220;49.450;11.052;2022-12-11T05:48:27;27.20;;;17.73;;
14272;SDS011;7220;49.450;11.052;2022-12-11T05:52:28;26.90;;;16.97;;
14272;SDS011;7220;49.450;11.052;2022-12-11T05:56:31;21.63;;;14.30;;
14272;SDS011;7220;49.450;11.052;2022-12-11T06:00:33;24.83;;;15.93;;
14272;SDS011;7220;49.450;11.052;2022-12-11T06:04:33;24.93;;;16.57;;
14272;SDS011;7220;49.450;11.052;2022-12-11T06:08:33;23.30;;;16.07;;
14272;SDS011;7220;49.450;11.052;2022-12-11T06:12:34;24.87;;;15.17;;
14272;SDS011;7220;49.450;11.052;2022-12-11T06:16:35;26.50;;;15.67;;
14272;SDS011;7220;49.450;11.052;2022-12-11T06:20:35;26.10;;;16.90;;
14272;SDS011;7220;49.450;11.052;2022-12-11T06:24:36;22.73;;;15.00;;
14272;SDS011;7220;49.450;11.052;2022-12-11T06:28:36;24.00;;;16.43;;
14272;SDS011;7220;49.450;11.052;2022-12-11T06:32:36;22.60;;;15.20;;
14272;SDS011;7220;49.450;11.052;2022-12-11T06:36:36;24.57;;;16.30;;
14272;SDS011;7220;49.450;11.052;2022-12-11T06:40:37;24.83;;;14.37;;
14272;SDS011;7220;49.450;11.052;2022-12-11T06:44:37;20.87;;;14.10;;
14272;SDS011;7220;49.450;11.052;2022-12-11T06:48:38;24.30;;;15.57;;
14272;SDS011;7220;49.450;11.052;2022-12-11T06:52:41;24.40;;;16.53;;
14272;SDS011;7220;49.450;11.052;2022-12-11T06:56:41;22.03;;;15.47;;
14272;SDS011;7220;49.450;11.052;2022-12-11T07:00:41;24.60;;;15.03;;
14272;SDS011;7220;49.450;11.052;2022-12-11T07:04:42;22.67;;;14.67;;
14272;SDS011;7220;49.450;11.052;2022-12-11T07:08:43;25.67;;;15.73;;
14272;SDS011;7220;49.450;11.052;2022-12-11T07:12:43;22.03;;;15.07;;
14272;SDS011;7220;49.450;11.052;2022-12-11T07:16:43;21.00;;;14.93;;
14272;SDS011;7220;49.450;11.052;2022-12-11T07:20:44;20.93;;;14.63;;
14272;SDS011;7220;49.450;11.052;2022-12-11T07:24:44;21.00;;;13.80;;
14272;SDS011;7220;49.450;11.052;2022-12-11T07:28:45;22.23;;;14.63;;
14272;SDS011;7220;49.450;11.052;2022-12-11T07:32:46;23.27;;;14.97;;
14272;SDS011;7220;49.450;11.052;2022-12-11T07:36:46;20.67;;;14.67;;
14272;SDS011;7220;49.450;11.052;2022-12-11T07:40:46;21.47;;;13.70;;
14272;SDS011;7220;49.450;11.052;2022-12-11T07:44:47;21.43;;;14.73;;
14272;SDS011;7220;49.450;11.052;2022-12-11T07:48:47;19.50;;;13.03;;
14272;SDS011;7220;49.450;11.052;2022-12-11T07:52:48;22.43;;;14.03;;
14272;SDS011;7220;49.450;11.052;2022-12-11T07:56:48;18.33;;;13.53;;
14272;SDS011;7220;49.450;11.052;2022-12-11T08:00:49;20.97;;;13.90;;
14272;SDS011;7220;49.450;11.052;2022-12-11T08:04:49;20.67;;;13.97;;
14272;SDS011;7220;49.450;11.052;2022-12-11T08:08:52;20.03;;;14.17;;
14272;SDS011;7220;49.450;11.052;2022-12-11T08:12:52;19.73;;;14.30;;
14272;SDS011;7220;49.450;11.052;2022-12-11T08:16:53;21.23;;;15.73;;
14272;SDS011;7220;49.450;11.052;2022-12-11T08:20:53;19.97;;;14.27;;
14272;SDS011;7220;49.450;11.052;2022-12-11T08:24:53;21.53;;;14.23;;
14272;SDS011;7220;49.450;11.052;2022-12-11T08:28:54;19.20;;;14.03;;
14272;SDS011;7220;49.450;11.052;2022-12-11T08:32:55;21.23;;;14.57;;
14272;SDS011;7220;49.450;11.052;2022-12-11T08:36:55;20.53;;;14.70;;
14272;SDS011;7220;49.450;11.052;2022-12-11T08:40:56;21.20;;;14.07;;
14272;SDS011;7220;49.450;11.052;2022-12-11T08:44:56;19.33;;;13.87;;
14272;SDS011;7220;49.450;11.052;2022-12-11T08:48:57;20.93;;;14.63;;
14272;SDS011;7220;49.450;11.052;2022-12-11T08:52:58;20.87;;;14.20;;
14272;SDS011;7220;49.450;11.052;2022-12-11T08:56:58;21.57;;;14.40;;
14272;SDS011;7220;49.450;11.052;2022-12-11T09:00:58;18.90;;;12.90;;
14272;SDS011;7220;49.450;11.052;2022-12-11T09:04:59;24.27;;;15.47;;
14272;SDS011;7220;49.450;11.052;2022-12-11T09:08:59;27.37;;;15.40;;
14272;SDS011;7220;49.450;11.052;2022-12-11T09:13:00;20.33;;;15.00;;
14272;SDS011;7220;49.450;11.052;2022-12-11T09:17:00;21.40;;;14.60;;
14272;SDS011;7220;49.450;11.052;2022-12-11T09:21:05;22.93;;;16.10;;
14272;SDS011;7220;49.450;11.052;2022-12-11T09:25:07;20.80;;;14.97;;
14272;SDS011;7220;49.450;11.052;2022-12-11T09:29:09;19.73;;;14.40;;
14272;SDS011;7220;49.450;11.052;2022-12-11T09:33:09;18.63;;;12.40;;
14272;SDS011;7220;49.450;11.052;2022-12-11T09:37:10;20.23;;;13.60;;
14272;SDS011;7220;49.450;11.052;2022-12-11T09:45:20;18.40;;;13.20;;
14272;SDS011;7220;49.450;11.052;2022-12-11T09:49:32;17.73;;;12.77;;
14272;SDS011;7220;49.450;11.052;2022-12-11T09:53:37;19.27;;;12.90;;
14272;SDS011;7220;49.450;11.052;2022-12-11T09:57:41;20.73;;;14.00;;
14272;SDS011;7220;49.450;11.052;2022-12-11T10:02:00;20.60;;;13.70;;
14272;SDS011;7220;49.450;11.052;2022-12-11T10:06:18;19.73;;;12.40;;
14272;SDS011;7220;49.450;11.052;2022-12-11T10:10:43;16.87;;;12.40;;
14272;SDS011;7220;49.450;11.052;2022-12-11T10:15:14;16.43;;;11.63;;
14272;SDS011;7220;49.450;11.052;2022-12-11T10:19:29;20.27;;;13.50;;
14272;SDS011;7220;49.450;11.052;2022-12-11T10:23:33;17.23;;;12.17;;
14272;SDS011;7220;49.450;11.052;2022-12-11T10:27:39;21.40;;;13.13;;
14272;SDS011;7220;49.450;11.052;2022-12-11T10:31:49;16.50;;;12.63;;
14272;SDS011;7220;49.450;11.052;2022-12-11T10:35:55;17.53;;;11.70;;
14272;SDS011;7220;49.450;11.052;2022-12-11T10:39:56;17.17;;;11.93;;
14272;SDS011;7220;49.450;11.052;2022-12-11T10:43:57;18.87;;;12.60;;
14272;SDS011;7220;49.450;11.052;2022-12-11T10:48:02;18.80;;;12.07;;
14272;SDS011;7220;49.450;11.052;2022-12-11T10:52:16;17.50;;;12.30;;
14272;SDS011;7220;49.450;11.052;2022-12-11T10:56:29;17.60;;;11.53;;
14272;SDS011;7220;49.450;11.052;2022-12-11T11:00:36;17.43;;;12.27;;
14272;SDS011;7220;49.450;11.052;2022-12-11T11:04:40;18.80;;;12.47;;
14272;SDS011;7220;49.450;11.052;2022-12-11T11:08:45;18.57;;;12.40;;
14272;SDS011;7220;49.450;11.052;2022-12-11T11:12:47;18.00;;;11.83;;
14272;SDS011;7220;49.450;11.052;2022-12-11T11:16:50;18.03;;;12.70;;
14272;SDS011;7220;49.450;11.052;2022-12-11T11:20:53;21.73;;;14.33;;
14272;SDS011;7220;49.450;11.052;2022-12-11T11:24:55;18.40;;;11.47;;
14272;SDS011;7220;49.450;11.052;2022-12-11T11:28:56;16.43;;;9.83;;
14272;SDS011;7220;49.450;11.052;2022-12-11T11:32:58;14.13;;;10.83;;
14272;SDS011;7220;49.450;11.052;2022-12-11T11:37:01;13.10;;;9.27;;
14272;SDS011;7220;49.450;11.052;2022-12-11T11:41:16;14.93;;;10.17;;
14272;SDS011;7220;49.450;11.052;2022-12-11T11:45:24;13.43;;;9.93;;
14272;SDS011;7220;49.450;11.052;2022-12-11T11:54:00;13.07;;;9.77;;
14272;SDS011;7220;49.450;11.052;2022-12-11T11:58:14;13.60;;;9.77;;
14272;SDS011;7220;49.450;11.052;2022-12-11T12:02:21;15.73;;;11.37;;
14272;SDS011;7220;49.450;11.052;2022-12-11T12:19:15;14.97;;;10.43;;
14272;SDS011;7220;49.450;11.052;2022-12-11T12:23:49;12.93;;;9.87;;
14272;SDS011;7220;49.450;11.052;2022-12-11T12:27:59;12.73;;;8.80;;
14272;SDS011;7220;49.450;11.052;2022-12-11T12:32:16;11.73;;;9.00;;
14272;SDS011;7220;49.450;11.052;2022-12-11T12:44:58;12.77;;;9.40;;
14272;SDS011;7220;49.450;11.052;2022-12-11T12:49:11;12.70;;;9.00;;
14272;SDS011;7220;49.450;11.052;2022-12-11T12:53:19;14.30;;;10.00;;
14272;SDS011;7220;49.450;11.052;2022-12-11T12:57:23;14.40;;;9.70;;
14272;SDS011;7220;49.450;11.052;2022-12-11T13:01:24;12.50;;;8.60;;
14272;SDS011;7220;49.450;11.052;2022-12-11T13:05:29;14.53;;;8.97;;
14272;SDS011;7220;49.450;11.052;2022-12-11T13:09:32;13.10;;;9.27;;
14272;SDS011;7220;49.450;11.052;2022-12-11T13:17:34;13.77;;;9.87;;
14272;SDS011;7220;49.450;11.052;2022-12-11T13:21:37;12.73;;;10.10;;
14272;SDS011;7220;49.450;11.052;2022-12-11T13:25:45;11.40;;;8.13;;
14272;SDS011;7220;49.450;11.052;2022-12-11T13:29:48;11.47;;;9.33;;
14272;SDS011;7220;49.450;11.052;2022-12-11T13:33:49;13.00;;;8.50;;
14272;SDS011;7220;49.450;11.052;2022-12-11T13:37:52;10.00;;;7.00;;
14272;SDS011;7220;49.450;11.052;2022-12-11T13:42:03;11.43;;;7.80;;
14272;SDS011;7220;49.450;11.052;2022-12-11T13:46:06;15.23;;;9.10;;
14272;SDS011;7220;49.450;11.052;2022-12-11T13:50:13;11.13;;;7.40;;
14272;SDS011;7220;49.450;11.052;2022-12-11T13:54:23;9.80;;;7.00;;
14272;SDS011;7220;49.450;11.052;2022-12-11T13:58:24;10.90;;;7.67;;
14272;SDS011;7220;49.450;11.052;2022-12-11T14:02:35;11.27;;;6.83;;
14272;SDS011;7220;49.450;11.052;2022-12-11T14:06:41;9.23;;;6.83;;
14272;SDS011;7220;49.450;11.052;2022-12-11T14:10:41;8.30;;;6.53;;
14272;SDS011;7220;49.450;11.052;2022-12-11T14:14:49;9.30;;;6.90;;
14272;SDS011;7220;49.450;11.052;2022-12-11T14:18:54;9.07;;;7.20;;
14272;SDS011;7220;49.450;11.052;2022-12-11T14:23:15;10.40;;;6.63;;
14272;SDS011;7220;49.450;11.052;2022-12-11T14:27:17;10.03;;;7.67;;
14272;SDS011;7220;49.450;11.052;2022-12-11T14:31:33;12.33;;;7.97;;
14272;SDS011;7220;49.450;11.052;2022-12-11T14:35:39;10.80;;;7.17;;
14272;SDS011;7220;49.450;11.052;2022-12-11T14:40:02;10.67;;;7.20;;
14272;SDS011;7220;49.450;11.052;2022-12-11T14:44:11;13.40;;;7.50;;
14272;SDS011;7220;49.450;11.052;2022-12-11T14:48:22;10.60;;;7.40;;
14272;SDS011;7220;49.450;11.052;2022-12-11T14:52:28;11.27;;;6.90;;
14272;SDS011;7220;49.450;11.052;2022-12-11T14:56:32;10.77;;;7.80;;
14272;SDS011;7220;49.450;11.052;2022-12-11T15:00:34;12.67;;;7.53;;
14272;SDS011;7220;49.450;11.052;2022-12-11T15:04:36;19.43;;;10.37;;
14272;SDS011;7220;49.450;11.052;2022-12-11T15:08:36;14.57;;;9.50;;
14272;SDS011;7220;49.450;11.052;2022-12-11T15:12:42;12.30;;;8.00;;
14272;SDS011;7220;49.450;11.052;2022-12-11T15:16:44;12.17;;;8.17;;
14272;SDS011;7220;49.450;11.052;2022-12-11T15:20:49;12.90;;;8.63;;
14272;SDS011;7220;49.450;11.052;2022-12-11T15:24:52;10.17;;;7.77;;
14272;SDS011;7220;49.450;11.052;2022-12-11T15:28:58;12.10;;;8.07;;
14272;SDS011;7220;49.450;11.052;2022-12-11T15:41:24;12.97;;;8.90;;
14272;SDS011;7220;49.450;11.052;2022-12-11T15:45:25;14.70;;;10.43;;
14272;SDS011;7220;49.450;11.052;2022-12-11T15:49:29;14.80;;;10.67;;
14272;SDS011;7220;49.450;11.052;2022-12-11T15:53:30;12.50;;;8.33;;
14272;SDS011;7220;49.450;11.052;2022-12-11T15:57:30;15.13;;;9.80;;
14272;SDS011;7220;49.450;11.052;2022-12-11T16:01:30;15.00;;;9.83;;
14272;SDS011;7220;49.450;11.052;2022-12-11T16:05:31;11.83;;;8.67;;
14272;SDS011;7220;49.450;11.052;2022-12-11T16:09:31;13.10;;;8.43;;
14272;SDS011;7220;49.450;11.052;2022-12-11T16:13:33;13.97;;;10.23;;
14272;SDS011;7220;49.450;11.052;2022-12-11T16:17:34;12.50;;;9.10;;
14272;SDS011;7220;49.450;11.052;2022-12-11T16:21:34;13.87;;;9.53;;
14272;SDS011;7220;49.450;11.052;2022-12-11T16:25:38;22.87;;;11.67;;
14272;SDS011;7220;49.450;11.052;2022-12-11T16:29:40;13.47;;;8.30;;
14272;SDS011;7220;49.450;11.052;2022-12-11T16:33:40;15.53;;;9.90;;
14272;SDS011;7220;49.450;11.052;2022-12-11T16:37:42;12.87;;;9.17;;
14272;SDS011;7220;49.450;11.052;2022-12-11T16:41:42;18.47;;;10.10;;
14272;SDS011;7220;49.450;11.052;2022-12-11T16:45:42;16.17;;;10.30;;
14272;SDS011;7220;49.450;11.052;2022-12-11T16:49:43;14.07;;;10.00;;
14272;SDS011;7220;49.450;11.052;2022-12-11T16:53:44;16.70;;;10.63;;
14272;SDS011;7220;49.450;11.052;2022-12-11T16:57:45;16.47;;;10.13;;
14272;SDS011;7220;49.450;11.052;2022-12-11T17:01:46;14.83;;;10.33;;
14272;SDS011;7220;49.450;11.052;2022-12-11T17:05:46;15.87;;;10.53;;
14272;SDS011;7220;49.450;11.052;2022-12-11T17:09:46;17.97;;;10.90;;
14272;SDS011;7220;49.450;11.052;2022-12-11T17:13:47;17.30;;;11.90;;
14272;SDS011;7220;49.450;11.052;2022-12-11T17:17:52;15.73;;;10.33;;
14272;SDS011;7220;49.450;11.052;2022-12-11T17:21:53;16.73;;;10.83;;
14272;SDS011;7220;49.450;11.052;2022-12-11T17:25:54;16.97;;;11.47;;
14272;SDS011;7220;49.450;11.052;2022-12-11T17:29:55;16.17;;;10.30;;
14272;SDS011;7220;49.450;11.052;2022-12-11T17:33:56;19.70;;;11.83;;
14272;SDS011;7220;49.450;11.052;2022-12-11T17:37:59;18.17;;;12.10;;
14272;SDS011;7220;49.450;11.052;2022-12-11T17:42:00;17.93;;;11.63;;
14272;SDS011;7220;49.450;11.052;2022-12-11T17:46:00;17.10;;;12.50;;
14272;SDS011;7220;49.450;11.052;2022-12-11T17:50:01;17.60;;;12.00;;
14272;SDS011;7220;49.450;11.052;2022-12-11T17:54:01;20.47;;;14.67;;
14272;SDS011;7220;49.450;11.052;2022-12-11T17:58:01;23.53;;;15.83;;
14272;SDS011;7220;49.450;11.052;2022-12-11T18:02:02;20.20;;;13.33;;
14272;SDS011;7220;49.450;11.052;2022-12-11T18:06:03;27.37;;;17.10;;
14272;SDS011;7220;49.450;11.052;2022-12-11T18:10:06;28.50;;;17.97;;
14272;SDS011;7220;49.450;11.052;2022-12-11T18:14:07;23.97;;;14.40;;
14272;SDS011;7220;49.450;11.052;2022-12-11T18:18:07;20.60;;;13.50;;
14272;SDS011;7220;49.450;11.052;2022-12-11T18:22:08;27.97;;;17.23;;
14272;SDS011;7220;49.450;11.052;2022-12-11T18:26:08;21.13;;;13.13;;
14272;SDS011;7220;49.450;11.052;2022-12-11T18:30:10;20.70;;;13.13;;
14272;SDS011;7220;49.450;11.052;2022-12-11T18:34:13;22.00;;;14.37;;
14272;SDS011;7220;49.450;11.052;2022-12-11T18:38:13;23.73;;;14.20;;
14272;SDS011;7220;49.450;11.052;2022-12-11T18:42:13;18.70;;;13.37;;
14272;SDS011;7220;49.450;11.052;2022-12-11T18:46:14;22.07;;;13.40;;
14272;SDS011;7220;49.450;11.052;2022-12-11T18:50:17;25.27;;;15.27;;
14272;SDS011;7220;49.450;11.052;2022-12-11T18:54:17;23.63;;;15.83;;
14272;SDS011;7220;49.450;11.052;2022-12-11T18:58:18;21.33;;;14.23;;
14272;SDS011;7220;49.450;11.052;2022-12-11T19:02:19;21.80;;;15.27;;
14272;SDS011;7220;49.450;11.052;2022-12-11T19:06:21;22.87;;;15.63;;
14272;SDS011;7220;49.450;11.052;2022-12-11T19:10:27;22.03;;;15.43;;
14272;SDS011;7220;49.450;11.052;2022-12-11T19:14:28;24.93;;;16.33;;
14272;SDS011;7220;49.450;11.052;2022-12-11T19:18:28;24.60;;;16.03;;
14272;SDS011;7220;49.450;11.052;2022-12-11T19:22:28;23.87;;;16.57;;
14272;SDS011;7220;49.450;11.052;2022-12-11T19:26:29;28.50;;;17.90;;
14272;SDS011;7220;49.450;11.052;2022-12-11T19:30:29;28.70;;;17.60;;
14272;SDS011;7220;49.450;11.052;2022-12-11T19:34:29;27.70;;;19.67;;
14272;SDS011;7220;49.450;11.052;2022-12-11T19:38:30;26.70;;;17.13;;
14272;SDS011;7220;49.450;11.052;2022-12-11T19:42:30;29.60;;;17.83;;
14272;SDS011;7220;49.450;11.052;2022-12-11T19:46:30;28.07;;;18.50;;
14272;SDS011;7220;49.450;11.052;2022-12-11T19:50:33;31.43;;;19.77;;
14272;SDS011;7220;49.450;11.052;2022-12-11T19:54:34;25.17;;;17.50;;
14272;SDS011;7220;49.450;11.052;2022-12-11T19:58:34;25.43;;;16.40;;
14272;SDS011;7220;49.450;11.052;2022-12-11T20:02:35;26.27;;;15.50;;
14272;SDS011;7220;49.450;11.052;2022-12-11T20:06:35;27.17;;;18.37;;
14272;SDS011;7220;49.450;11.052;2022-12-11T20:10:38;27.50;;;17.57;;
14272;SDS011;7220;49.450;11.052;2022-12-11T20:14:38;28.63;;;18.70;;
14272;SDS011;7220;49.450;11.052;2022-12-11T20:18:38;27.27;;;17.50;;
14272;SDS011;7220;49.450;11.052;2022-12-11T20:22:39;27.47;;;17.17;;
14272;SDS011;7220;49.450;11.052;2022-12-11T20:26:39;27.90;;;17.90;;
14272;SDS011;7220;49.450;11.052;2022-12-11T20:30:40;30.30;;;17.40;;
14272;SDS011;7220;49.450;11.052;2022-12-11T20:34:40;24.50;;;15.07;;
14272;SDS011;7220;49.450;11.052;2022-12-11T20:38:41;27.67;;;17.63;;
14272;SDS011;7220;49.450;11.052;2022-12-11T20:42:42;32.07;;;18.33;;
14272;SDS011;7220;49.450;11.052;2022-12-11T20:46:42;25.43;;;17.50;;
14272;SDS011;7220;49.450;11.052;2022-12-11T20:50:43;27.10;;;18.03;;
14272;SDS011;7220;49.450;11.052;2022-12-11T20:54:43;23.63;;;15.40;;
14272;SDS011;7220;49.450;11.052;2022-12-11T20:58:44;26.07;;;16.03;;
14272;SDS011;7220;49.450;11.052;2022-12-11T21:02:45;26.53;;;16.20;;
14272;SDS011;7220;49.450;11.052;2022-12-11T21:06:50;22.67;;;15.27;;
14272;SDS011;7220;49.450;11.052;2022-12-11T21:10:54;26.43;;;16.10;;
14272;SDS011;7220;49.450;11.052;2022-12-11T21:14:54;28.67;;;17.63;;
14272;SDS011;7220;49.450;11.052;2022-12-11T21:18:55;25.60;;;14.97;;
14272;SDS011;7220;49.450;11.052;2022-12-11T21:22:56;26.77;;;16.10;;
14272;SDS011;7220;49.450;11.052;2022-12-11T21:26:57;25.67;;;15.37;;
14272;SDS011;7220;49.450;11.052;2022-12-11T21:31:03;22.57;;;15.43;;
14272;SDS011;7220;49.450;11.052;2022-12-11T21:35:06;24.20;;;15.73;;
14272;SDS011;7220;49.450;11.052;2022-12-11T21:39:07;30.00;;;17.23;;
14272;SDS011;7220;49.450;11.052;2022-12-11T21:43:07;28.20;;;16.33;;
14272;SDS011;7220;49.450;11.052;2022-12-11T21:47:08;27.27;;;15.97;;
14272;SDS011;7220;49.450;11.052;2022-12-11T21:51:09;22.63;;;15.93;;
14272;SDS011;7220;49.450;11.052;2022-12-11T21:55:11;23.30;;;14.90;;
14272;SDS011;7220;49.450;11.052;2022-12-11T21:59:12;29.10;;;17.80;;
14272;SDS011;7220;49.450;11.052;2022-12-11T22:03:12;25.37;;;14.73;;
14272;SDS011;7220;49.450;11.052;2022-12-11T22:07:13;24.30;;;15.17;;
14272;SDS011;7220;49.450;11.052;2022-12-11T22:11:16;22.93;;;14.70;;
14272;SDS011;7220;49.450;11.052;2022-12-11T22:15:22;22.17;;;14.53;;
14272;SDS011;7220;49.450;11.052;2022-12-11T22:19:22;26.07;;;16.03;;
14272;SDS011;7220;49.450;11.052;2022-12-11T22:23:23;25.13;;;15.03;;
14272;SDS011;7220;49.450;11.052;2022-12-11T22:27:23;24.40;;;15.00;;
14272;SDS011;7220;49.450;11.052;2022-12-11T22:31:24;24.10;;;14.57;;
14272;SDS011;7220;49.450;11.052;2022-12-11T22:35:25;23.13;;;15.40;;
14272;SDS011;7220;49.450;11.052;2022-12-11T22:39:26;25.40;;;16.50;;
14272;SDS011;7220;49.450;11.052;2022-12-11T22:43:26;26.53;;;16.03;;
14272;SDS011;7220;49.450;11.052;2022-12-11T22:47:26;25.47;;;15.70;;
14272;SDS011;7220;49.450;11.052;2022-12-11T22:51:26;28.97;;;15.77;;
14272;SDS011;7220;49.450;11.052;2022-12-11T22:55:27;25.37;;;16.40;;
14272;SDS011;7220;49.450;11.052;2022-12-11T22:59:27;25.03;;;15.00;;
14272;SDS011;7220;49.450;11.052;2022-12-11T23:03:27;27.13;;;16.40;;
14272;SDS011;7220;49.450;11.052;2022-12-11T23:07:28;25.57;;;16.37;;
14272;SDS011;7220;49.450;11.052;2022-12-11T23:11:29;26.60;;;16.07;;
14272;SDS011;7220;49.450;11.052;2022-12-11T23:15:33;22.33;;;15.07;;
14272;SDS011;7220;49.450;11.052;2022-12-11T23:19:34;24.80;;;15.23;;
14272;SDS011;7220;49.450;11.052;2022-12-11T23:23:35;25.93;;;14.87;;
14272;SDS011;7220;49.450;11.052;2022-12-11T23:27:35;22.53;;;15.43;;
14272;SDS011;7220;49.450;11.052;2022-12-11T23:31:36;29.30;;;17.33;;
14272;SDS011;7220;49.450;11.052;2022-12-11T23:35:36;26.27;;;16.30;;
14272;SDS011;7220;49.450;11.052;2022-12-11T23:39:36;25.27;;;15.27;;
14272;SDS011;7220;49.450;11.052;2022-12-11T23:43:37;26.93;;;17.23;;
14272;SDS011;7220;49.450;11.052;2022-12-11T23:47:37;20.80;;;12.00;;
14272;SDS011;7220;49.450;11.052;2022-12-11T23:51:37;21.83;;;14.73;;
14272;SDS011;7220;49.450;11.052;2022-12-11T23:55:39;22.03;;;12.77;;
14272;SDS011;7220;49.450;11.052;2022-12-11T23:59:41;17.27;;;10.30;;
